createdAt,value
2022-11-06T00:01:18.150Z,5.65
2022-11-06T00:03:46.518Z,5.38
2022-11-06T00:06:38.109Z,5.32
2022-11-06T00:09:10.116Z,5.32
2022-11-06T00:11:40.162Z,5.93
2022-11-06T00:14:09.029Z,6.38
2022-11-06T00:16:40.365Z,5.78
2022-11-06T00:19:09.635Z,5.20
2022-11-06T00:21:37.977Z,5.90
2022-11-06T00:24:08.401Z,5.85
2022-11-06T00:26:36.806Z,5.53
2022-11-06T00:29:05.868Z,5.50
2022-11-06T00:31:37.676Z,4.93
2022-11-06T00:34:08.149Z,5.97
2022-11-06T00:36:40.348Z,4.93
2022-11-06T00:39:11.420Z,5.53
2022-11-06T00:41:40.011Z,5.88
2022-11-06T00:44:10.764Z,4.53
2022-11-06T00:46:40.322Z,5.60
2022-11-06T00:49:09.061Z,5.70
2022-11-06T00:51:44.091Z,5.28
2022-11-06T00:54:14.284Z,4.95
2022-11-06T00:56:43.580Z,5.60
2022-11-06T00:59:15.214Z,4.75
2022-11-06T01:01:45.793Z,5.32
2022-11-06T01:04:18.549Z,6.03
2022-11-06T01:06:50.602Z,5.32
2022-11-06T01:14:41.370Z,5.25
2022-11-06T01:17:09.829Z,5.68
2022-11-06T01:19:40.250Z,5.70
2022-11-06T01:22:09.106Z,5.60
2022-11-06T01:24:41.772Z,5.90
2022-11-06T01:27:27.164Z,5.43
2022-11-06T01:29:57.462Z,5.25
2022-11-06T01:32:25.814Z,5.93
2022-11-06T01:34:54.084Z,5.82
2022-11-06T01:37:22.173Z,6.10
2022-11-06T01:39:55.244Z,5.65
2022-11-06T01:42:23.933Z,6.40
2022-11-06T01:47:53.063Z,5.78
2022-11-06T01:50:22.347Z,5.25
2022-11-06T01:52:54.450Z,5.43
2022-11-06T01:55:35.029Z,5.38
2022-11-06T01:58:06.369Z,6.05
2022-11-06T02:00:44.297Z,6.03
2022-11-06T02:03:15.803Z,5.32
2022-11-06T02:05:45.913Z,5.95
2022-11-06T02:08:17.463Z,5.43
2022-11-06T02:11:03.041Z,5.25
2022-11-06T02:19:50.169Z,5.68
2022-11-06T02:27:56.961Z,5.68
2022-11-06T02:30:32.670Z,4.65
2022-11-06T02:33:07.762Z,5.60
2022-11-06T02:35:43.106Z,5.55
2022-11-06T02:38:19.241Z,5.78
2022-11-06T02:40:57.734Z,5.55
2022-11-06T02:43:40.512Z,5.80
2022-11-06T02:46:20.422Z,5.88
2022-11-06T02:48:59.682Z,6.35
2022-11-06T02:51:34.497Z,6.32
2022-11-06T02:54:14.555Z,6.03
2022-11-06T02:56:58.683Z,6.30
2022-11-06T02:59:44.446Z,6.07
2022-11-06T03:02:29.823Z,6.82
2022-11-06T03:05:23.197Z,7.13
2022-11-06T03:08:06.541Z,6.78
2022-11-06T03:11:07.138Z,6.55
2022-11-06T03:17:10.417Z,6.45
2022-11-06T03:20:11.103Z,5.90
2022-11-06T03:29:02.391Z,7.80
2022-11-06T03:31:42.270Z,5.78
2022-11-06T03:34:28.495Z,6.45
2022-11-06T03:37:22.497Z,6.40
2022-11-06T03:40:04.077Z,6.32
2022-11-06T03:42:52.451Z,5.57
2022-11-06T03:45:28.205Z,5.80
2022-11-06T03:48:35.559Z,5.82
2022-11-06T03:56:34.837Z,5.13
2022-11-06T03:59:08.799Z,4.90
2022-11-06T04:01:55.350Z,5.70
2022-11-06T04:04:35.765Z,5.97
2022-11-06T04:07:16.015Z,6.10
2022-11-06T04:10:12.601Z,5.07
2022-11-06T04:13:08.973Z,5.07
2022-11-06T04:15:47.391Z,5.25
2022-11-06T04:18:21.435Z,4.88
2022-11-06T04:21:28.436Z,4.82
2022-11-06T04:32:26.400Z,5.43
2022-11-06T04:38:38.763Z,5.57
2022-11-06T04:41:38.405Z,5.30
2022-11-06T04:46:56.100Z,5.95
2022-11-06T04:49:35.577Z,5.45
2022-11-06T04:52:16.005Z,5.28
2022-11-06T04:55:01.063Z,5.97
2022-11-06T04:57:48.525Z,6.15
2022-11-06T05:00:26.331Z,6.22
2022-11-06T05:03:06.913Z,6.32
2022-11-06T05:05:50.644Z,6.68
2022-11-06T05:08:34.074Z,6.13
2022-11-06T05:11:24.041Z,6.38
2022-11-06T05:14:00.138Z,5.95
2022-11-06T05:19:28.414Z,5.80
2022-11-06T05:25:14.610Z,4.95
2022-11-06T05:28:11.913Z,5.35
2022-11-06T05:30:53.046Z,5.72
2022-11-06T05:33:26.522Z,6.00
2022-11-06T05:36:14.286Z,5.88
2022-11-06T05:38:55.801Z,5.78
2022-11-06T05:41:41.222Z,6.03
2022-11-06T05:44:19.812Z,5.32
2022-11-06T05:46:55.517Z,5.72
2022-11-06T05:49:31.476Z,5.75
2022-11-06T05:52:04.020Z,5.28
2022-11-06T05:54:34.406Z,6.40
2022-11-06T05:57:08.341Z,6.88
2022-11-06T05:59:37.099Z,6.43
2022-11-06T06:02:06.889Z,5.65
2022-11-06T06:04:36.683Z,6.55
2022-11-06T06:07:22.524Z,5.55
2022-11-06T06:10:11.744Z,5.28
2022-11-06T06:12:55.661Z,5.05
2022-11-06T06:15:27.505Z,5.55
2022-11-06T06:18:02.129Z,5.88
2022-11-06T06:21:02.484Z,5.57
2022-11-06T06:23:32.386Z,5.78
2022-11-06T06:26:04.155Z,5.70
2022-11-06T06:28:33.039Z,5.80
2022-11-06T06:31:08.672Z,5.45
2022-11-06T06:33:43.648Z,5.50
2022-11-06T06:36:14.637Z,6.03
2022-11-06T06:38:55.179Z,5.47
2022-11-06T06:41:27.979Z,5.53
2022-11-06T06:43:59.383Z,6.53
2022-11-06T06:49:03.583Z,6.40
2022-11-06T06:54:20.178Z,5.05
2022-11-06T06:56:55.836Z,5.38
2022-11-06T06:59:29.408Z,4.45
2022-11-06T07:02:06.441Z,5.72
2022-11-06T07:04:37.598Z,6.53
2022-11-06T07:07:14.117Z,7.95
2022-11-06T07:09:45.734Z,8.88
2022-11-06T07:12:17.655Z,12.93
2022-11-06T07:14:52.270Z,10.60
2022-11-06T07:17:40.195Z,11.60
2022-11-06T07:20:23.858Z,9.63
2022-11-06T07:23:17.023Z,7.28
2022-11-06T07:26:04.009Z,6.47
2022-11-06T07:28:41.267Z,5.55
2022-11-06T07:31:19.354Z,6.32
2022-11-06T07:34:14.194Z,6.40
2022-11-06T07:36:58.743Z,7.03
2022-11-06T07:39:42.491Z,6.25
2022-11-06T07:42:32.274Z,7.03
2022-11-06T07:45:06.725Z,6.05
2022-11-06T07:47:58.887Z,6.90
2022-11-06T07:50:36.991Z,6.03
2022-11-06T07:53:14.907Z,7.80
2022-11-06T07:56:21.035Z,8.73
2022-11-06T07:59:42.345Z,11.38
2022-11-06T08:02:18.444Z,10.38
2022-11-06T08:05:04.438Z,9.82
2022-11-06T08:07:41.954Z,6.78
2022-11-06T08:10:14.644Z,7.63
2022-11-06T08:12:54.345Z,7.53
2022-11-06T08:15:33.846Z,7.57
2022-11-06T08:18:11.114Z,7.50
2022-11-06T08:20:47.918Z,7.78
2022-11-06T08:23:30.153Z,7.57
2022-11-06T08:26:08.361Z,7.28
2022-11-06T08:28:44.382Z,7.20
2022-11-06T08:31:20.455Z,7.95
2022-11-06T08:33:55.633Z,8.27
2022-11-06T08:36:35.214Z,8.05
2022-11-06T08:39:07.800Z,7.00
2022-11-06T08:41:37.689Z,7.13
2022-11-06T08:44:09.970Z,7.57
2022-11-06T08:46:50.725Z,7.65
2022-11-06T08:49:23.597Z,6.43
2022-11-06T08:51:52.664Z,6.22
2022-11-06T08:54:22.256Z,8.27
2022-11-06T08:56:53.357Z,7.35
2022-11-06T08:59:29.933Z,7.82
2022-11-06T09:02:01.947Z,8.55
2022-11-06T09:07:03.690Z,5.60
2022-11-06T09:12:07.919Z,6.32
2022-11-06T09:14:36.772Z,6.80
2022-11-06T09:17:06.254Z,6.15
2022-11-06T09:19:40.959Z,5.47
2022-11-06T09:22:10.809Z,8.40
2022-11-06T09:25:02.729Z,6.95
2022-11-06T09:27:55.876Z,6.85
2022-11-06T09:30:33.613Z,20.42
2022-11-06T09:33:09.166Z,18.15
2022-11-06T09:35:51.832Z,15.23
2022-11-06T09:38:31.701Z,11.45
2022-11-06T09:41:10.030Z,17.65
2022-11-06T09:52:07.336Z,14.57
2022-11-06T09:55:32.985Z,14.77
2022-11-06T09:58:56.469Z,8.52
2022-11-06T10:02:31.639Z,4.30
2022-11-06T10:05:49.578Z,4.78
2022-11-06T10:08:41.887Z,4.72
2022-11-06T10:14:53.851Z,10.70
2022-11-06T10:20:37.372Z,5.38
2022-11-06T10:26:40.530Z,5.60
2022-11-06T10:34:52.382Z,4.53
2022-11-06T10:37:35.060Z,4.70
2022-11-06T10:40:20.546Z,5.28
2022-11-06T10:45:57.897Z,4.13
2022-11-06T10:49:15.476Z,4.82
2022-11-06T10:55:40.687Z,4.97
2022-11-06T10:58:24.113Z,4.72
2022-11-06T11:01:12.561Z,4.60
2022-11-06T11:03:55.127Z,4.28
2022-11-06T11:06:35.628Z,4.05
2022-11-06T11:09:34.341Z,4.88
2022-11-06T11:12:29.819Z,5.63
2022-11-06T11:15:30.148Z,4.88
2022-11-06T11:18:41.573Z,4.07
2022-11-06T11:21:54.109Z,4.55
2022-11-06T11:27:21.157Z,4.88
2022-11-06T11:30:14.839Z,3.47
2022-11-06T11:32:55.237Z,4.57
2022-11-06T11:35:42.584Z,4.05
2022-11-06T11:38:23.548Z,4.88
2022-11-06T11:41:28.930Z,5.05
2022-11-06T11:45:35.202Z,5.63
2022-11-06T12:08:45.685Z,13.20
2022-11-06T12:12:34.513Z,15.38
2022-11-06T12:18:00.619Z,7.35
2022-11-06T12:21:22.153Z,10.70
2022-11-06T12:24:31.725Z,7.30
2022-11-06T12:27:48.866Z,8.65
2022-11-06T12:59:43.653Z,5.22
2022-11-06T13:05:26.777Z,6.13
2022-11-06T13:14:14.278Z,6.43
2022-11-06T14:36:34.682Z,10.18
2022-11-06T14:43:01.613Z,9.27
2022-11-06T15:00:37.730Z,10.23
2022-11-06T15:15:57.064Z,14.70
2022-11-06T17:10:32.716Z,9.75
2022-11-06T17:49:35.523Z,10.20
2022-11-06T17:52:48.992Z,9.20
2022-11-06T18:11:19.393Z,8.55
2022-11-06T18:15:07.642Z,8.85
2022-11-06T18:23:40.789Z,9.85
2022-11-06T18:26:27.064Z,8.25
2022-11-06T18:29:26.009Z,7.85
2022-11-06T18:32:29.952Z,8.57
2022-11-06T18:35:31.111Z,8.40
2022-11-06T18:38:36.250Z,9.10
2022-11-06T18:41:23.563Z,7.63
2022-11-06T18:44:21.223Z,8.48
2022-11-06T18:47:32.966Z,8.15
2022-11-06T18:50:44.973Z,7.30
2022-11-06T19:19:25.340Z,5.60
2022-11-06T19:28:23.247Z,4.78
2022-11-06T19:36:08.580Z,4.95
2022-11-06T19:48:32.189Z,4.68
2022-11-06T19:55:57.243Z,4.97
2022-11-06T20:03:32.308Z,4.50
2022-11-06T20:06:43.208Z,5.68
2022-11-06T20:12:40.052Z,5.30
2022-11-06T20:26:57.633Z,5.28
2022-11-06T20:48:57.598Z,6.65
2022-11-06T20:52:13.214Z,6.13
2022-11-06T20:55:34.833Z,6.90
2022-11-06T21:06:39.035Z,5.43
2022-11-06T21:20:58.914Z,5.35
2022-11-06T21:26:41.199Z,5.65
2022-11-06T21:29:55.347Z,5.57
2022-11-06T21:33:50.791Z,5.97
2022-11-06T21:37:51.420Z,6.50
2022-11-06T21:40:35.419Z,5.70
2022-11-06T21:47:01.380Z,6.13
2022-11-06T21:57:57.654Z,4.95
2022-11-06T22:01:02.854Z,6.10
2022-11-06T22:03:52.169Z,6.03
2022-11-06T22:06:45.112Z,5.47
2022-11-06T22:12:05.268Z,5.40
2022-11-06T22:14:56.211Z,4.43
2022-11-06T22:17:52.231Z,5.55
2022-11-06T22:21:19.014Z,5.35
2022-11-06T22:37:43.555Z,4.70
2022-11-06T22:41:11.631Z,3.90
2022-11-06T22:47:45.458Z,5.20
2022-11-06T22:50:23.243Z,4.47
2022-11-06T22:53:09.428Z,5.00
2022-11-06T22:56:08.290Z,4.70
2022-11-06T22:58:58.476Z,4.57
2022-11-06T23:01:42.440Z,4.32
2022-11-06T23:04:21.132Z,4.95
2022-11-06T23:06:56.897Z,4.55
2022-11-06T23:09:45.612Z,4.82
2022-11-06T23:12:49.310Z,5.10
2022-11-06T23:15:50.511Z,4.60
2022-11-06T23:18:31.992Z,4.95
2022-11-06T23:21:27.630Z,4.75
2022-11-06T23:24:18.731Z,5.22
2022-11-06T23:26:55.011Z,5.13
2022-11-06T23:29:45.924Z,4.93
2022-11-06T23:32:30.681Z,4.53
2022-11-06T23:35:08.088Z,5.05
2022-11-06T23:37:51.912Z,4.72
2022-11-06T23:40:36.143Z,5.18
2022-11-06T23:43:12.881Z,4.25
2022-11-06T23:45:54.931Z,5.10
2022-11-06T23:48:39.953Z,5.05
2022-11-06T23:51:16.813Z,5.32
2022-11-06T23:53:58.819Z,5.53
2022-11-06T23:56:49.289Z,5.10
2022-11-06T23:59:22.380Z,5.63
